ROU2040 CYUL-CYQM
Flight info
| Callsign | ROU2040 |
|---|---|
| Flight time | 0h 58m |
| Altitude | 35000 |
| Route | SUXET DCT NOVUN DCT ESRAM DCT RABIK Q951 PUXOP |
| Aircraft | A319/M-SDE3FGHIRWY/LB1 |
Departure
| Time | 2026-05-06 04:23 |
|---|---|
| Airport | Montreal / Pierre Elliott Trudeau International Airport (CYUL) |
Arrival
| Time | 2026-05-06 05:21 |
|---|---|
| Airport | Greater Moncton Roméo LeBlanc International Airport (CYQM) |
| Time | Latitude | Longitude | Altitude | Speed | Heading |
|---|---|---|---|---|---|
| 2026-05-06 04:04 | 45.45807 | -73.74494 | 105 ft | 0 kts | 338° |
| 2026-05-06 04:13 | 45.45798 | -73.74489 | 106 ft | 3 kts | 343° |
| 2026-05-06 04:14 | 45.45779 | -73.74485 | 108 ft | 3 kts | 13° |
| 2026-05-06 04:14 | 45.45761 | -73.74495 | 105 ft | 3 kts | 39° |
| 2026-05-06 04:14 | 45.45748 | -73.74514 | 105 ft | 2 kts | 58° |
| 2026-05-06 04:14 | 45.45740 | -73.74532 | 105 ft | 2 kts | 58° |
| 2026-05-06 04:15 | 45.45738 | -73.74537 | 105 ft | 41 kts | 58° |
| 2026-05-06 04:17 | 45.45740 | -73.74532 | 103 ft | 1 kts | 57° |
| 2026-05-06 04:17 | 45.45753 | -73.74504 | 102 ft | 6 kts | 55° |
| 2026-05-06 04:18 | 45.45777 | -73.74455 | 116 ft | 6 kts | 55° |
| 2026-05-06 04:18 | 45.45805 | -73.74399 | 105 ft | 7 kts | 55° |
| 2026-05-06 04:18 | 45.45841 | -73.74340 | 104 ft | 10 kts | 39° |
| 2026-05-06 04:18 | 45.45906 | -73.74303 | 103 ft | 23 kts | 12° |
| 2026-05-06 04:19 | 45.46082 | -73.74131 | 103 ft | 33 kts | 44° |
| 2026-05-06 04:19 | 45.46250 | -73.73911 | 104 ft | 33 kts | 42° |
| 2026-05-06 04:19 | 45.46418 | -73.73694 | 108 ft | 32 kts | 42° |
| 2026-05-06 04:19 | 45.46587 | -73.73474 | 111 ft | 34 kts | 42° |
| 2026-05-06 04:20 | 45.46763 | -73.73244 | 113 ft | 33 kts | 42° |
| 2026-05-06 04:20 | 45.46929 | -73.73027 | 115 ft | 32 kts | 43° |
| 2026-05-06 04:20 | 45.47089 | -73.72815 | 117 ft | 31 kts | 43° |
| 2026-05-06 04:20 | 45.47243 | -73.72609 | 116 ft | 30 kts | 43° |
| 2026-05-06 04:21 | 45.47396 | -73.72409 | 117 ft | 29 kts | 42° |
| 2026-05-06 04:21 | 45.47544 | -73.72216 | 121 ft | 29 kts | 43° |
| 2026-05-06 04:21 | 45.47692 | -73.72020 | 121 ft | 28 kts | 43° |
| 2026-05-06 04:21 | 45.47838 | -73.71834 | 121 ft | 28 kts | 46° |
| 2026-05-06 04:22 | 45.47791 | -73.71696 | 121 ft | 13 kts | 167° |
| 2026-05-06 04:22 | 45.47688 | -73.71669 | 122 ft | 26 kts | 192° |
| 2026-05-06 04:22 | 45.47341 | -73.72077 | 120 ft | 102 kts | 223° |
| 2026-05-06 04:23 | 45.45845 | -73.73991 | 830 ft | 153 kts | 224° |
| 2026-05-06 04:23 | 45.45053 | -73.74997 | 1524 ft | 155 kts | 226° |
| 2026-05-06 04:23 | 45.44224 | -73.75985 | 2255 ft | 157 kts | 213° |
| 2026-05-06 04:23 | 45.43121 | -73.76115 | 3028 ft | 170 kts | 172° |
| 2026-05-06 04:24 | 45.41953 | -73.75333 | 3318 ft | 204 kts | 162° |
| 2026-05-06 04:24 | 45.40507 | -73.74462 | 3350 ft | 245 kts | 172° |
| 2026-05-06 04:24 | 45.38781 | -73.74404 | 3353 ft | 253 kts | 190° |
| 2026-05-06 04:24 | 45.36975 | -73.74015 | 3718 ft | 281 kts | 158° |
| 2026-05-06 04:25 | 45.35550 | -73.72082 | 4845 ft | 293 kts | 126° |
| 2026-05-06 04:25 | 45.34759 | -73.69378 | 5891 ft | 301 kts | 111° |
| 2026-05-06 04:25 | 45.34237 | -73.66454 | 6795 ft | 309 kts | 108° |
| 2026-05-06 04:25 | 45.33736 | -73.63467 | 7681 ft | 313 kts | 110° |
| 2026-05-06 04:26 | 45.33150 | -73.60469 | 8608 ft | 316 kts | 113° |
| 2026-05-06 04:26 | 45.32462 | -73.57502 | 9543 ft | 318 kts | 116° |
| 2026-05-06 04:26 | 45.31942 | -73.55500 | 10105 ft | 321 kts | 118° |
| 2026-05-06 04:26 | 45.31084 | -73.52445 | 10466 ft | 344 kts | 119° |
| 2026-05-06 04:27 | 45.30122 | -73.49207 | 10761 ft | 367 kts | 119° |
| 2026-05-06 04:27 | 45.29103 | -73.45822 | 11377 ft | 377 kts | 119° |
| 2026-05-06 04:27 | 45.28069 | -73.42357 | 12156 ft | 382 kts | 118° |
| 2026-05-06 04:27 | 45.27034 | -73.38862 | 12947 ft | 387 kts | 118° |
| 2026-05-06 04:28 | 45.25989 | -73.35323 | 13734 ft | 391 kts | 118° |
| 2026-05-06 04:28 | 45.24942 | -73.31772 | 14408 ft | 395 kts | 118° |
| 2026-05-06 04:28 | 45.23868 | -73.28134 | 15086 ft | 400 kts | 118° |
| 2026-05-06 04:28 | 45.22783 | -73.24454 | 15768 ft | 404 kts | 118° |
| 2026-05-06 04:29 | 45.21703 | -73.20740 | 16434 ft | 410 kts | 116° |
| 2026-05-06 04:29 | 45.20913 | -73.16805 | 17084 ft | 421 kts | 105° |
| 2026-05-06 04:29 | 45.20601 | -73.12635 | 17738 ft | 431 kts | 94° |
| 2026-05-06 04:29 | 45.20696 | -73.08349 | 18349 ft | 437 kts | 90° |
| 2026-05-06 04:30 | 45.20880 | -73.04023 | 18903 ft | 443 kts | 85° |
| 2026-05-06 04:30 | 45.21473 | -72.99709 | 19477 ft | 449 kts | 75° |
| 2026-05-06 04:30 | 45.22542 | -72.95530 | 20060 ft | 453 kts | 65° |
| 2026-05-06 04:30 | 45.24035 | -72.91578 | 20633 ft | 457 kts | 59° |
| 2026-05-06 04:31 | 45.25617 | -72.87640 | 21204 ft | 460 kts | 59° |
| 2026-05-06 04:31 | 45.27195 | -72.83647 | 21762 ft | 464 kts | 62° |
| 2026-05-06 04:31 | 45.28442 | -72.79447 | 22295 ft | 467 kts | 72° |
| 2026-05-06 04:31 | 45.29222 | -72.74952 | 22825 ft | 470 kts | 82° |
| 2026-05-06 04:32 | 45.29525 | -72.70298 | 23360 ft | 471 kts | 90° |
| 2026-05-06 04:32 | 45.29688 | -72.65656 | 23813 ft | 474 kts | 89° |
| 2026-05-06 04:32 | 45.29864 | -72.60963 | 24247 ft | 477 kts | 89° |
| 2026-05-06 04:32 | 45.30076 | -72.56228 | 24676 ft | 481 kts | 88° |
| 2026-05-06 04:33 | 45.30337 | -72.51467 | 25117 ft | 484 kts | 87° |
| 2026-05-06 04:33 | 45.30625 | -72.46700 | 25545 ft | 487 kts | 86° |
| 2026-05-06 04:33 | 45.30919 | -72.41922 | 25971 ft | 490 kts | 86° |
| 2026-05-06 04:33 | 45.31213 | -72.37063 | 26394 ft | 493 kts | 86° |
| 2026-05-06 04:34 | 45.31497 | -72.32128 | 26815 ft | 496 kts | 86° |
| 2026-05-06 04:34 | 45.31763 | -72.27238 | 27228 ft | 499 kts | 87° |
| 2026-05-06 04:34 | 45.32022 | -72.22311 | 27641 ft | 502 kts | 87° |
| 2026-05-06 04:34 | 45.32271 | -72.17396 | 28029 ft | 505 kts | 87° |
| 2026-05-06 04:35 | 45.32526 | -72.12331 | 28420 ft | 508 kts | 87° |
| 2026-05-06 04:35 | 45.32774 | -72.07343 | 28799 ft | 510 kts | 86° |
| 2026-05-06 04:35 | 45.33029 | -72.02288 | 29166 ft | 513 kts | 86° |
| 2026-05-06 04:35 | 45.33290 | -71.97215 | 29531 ft | 516 kts | 86° |
| 2026-05-06 04:36 | 45.33551 | -71.92103 | 29892 ft | 519 kts | 86° |
| 2026-05-06 04:36 | 45.33807 | -71.86980 | 30324 ft | 518 kts | 86° |
| 2026-05-06 04:36 | 45.34151 | -71.81893 | 30776 ft | 517 kts | 83° |
| 2026-05-06 04:36 | 45.34641 | -71.76842 | 31239 ft | 516 kts | 81° |
| 2026-05-06 04:37 | 45.35243 | -71.71732 | 31707 ft | 514 kts | 79° |
| 2026-05-06 04:37 | 45.35878 | -71.66722 | 32174 ft | 513 kts | 78° |
| 2026-05-06 04:37 | 45.36497 | -71.61789 | 32650 ft | 512 kts | 78° |
| 2026-05-06 04:37 | 45.37090 | -71.56806 | 33113 ft | 511 kts | 79° |
| 2026-05-06 04:38 | 45.37652 | -71.51795 | 33590 ft | 509 kts | 79° |
| 2026-05-06 04:38 | 45.38175 | -71.46872 | 34028 ft | 508 kts | 79° |
| 2026-05-06 04:38 | 45.38693 | -71.41829 | 34441 ft | 507 kts | 80° |
| 2026-05-06 04:38 | 45.39197 | -71.36860 | 34760 ft | 507 kts | 80° |
| 2026-05-06 04:39 | 45.39702 | -71.31902 | 34846 ft | 507 kts | 79° |
| 2026-05-06 04:39 | 45.40737 | -71.21902 | 34843 ft | 506 kts | 79° |
| 2026-05-06 04:40 | 45.41774 | -71.12008 | 34843 ft | 505 kts | 79° |
| 2026-05-06 04:40 | 45.42785 | -71.02092 | 34834 ft | 505 kts | 81° |
| 2026-05-06 04:41 | 45.43458 | -70.92189 | 34824 ft | 506 kts | 85° |
| 2026-05-06 04:41 | 45.43803 | -70.82141 | 34821 ft | 506 kts | 86° |
| 2026-05-06 04:42 | 45.44137 | -70.72140 | 34827 ft | 505 kts | 85° |
| 2026-05-06 04:42 | 45.44612 | -70.62208 | 34824 ft | 504 kts | 82° |
| 2026-05-06 04:43 | 45.45575 | -70.52278 | 34828 ft | 502 kts | 78° |
| 2026-05-06 04:43 | 45.46737 | -70.42495 | 34823 ft | 502 kts | 78° |
| 2026-05-06 04:44 | 45.47797 | -70.32686 | 34822 ft | 503 kts | 79° |
| 2026-05-06 04:44 | 45.48745 | -70.22787 | 34825 ft | 503 kts | 79° |
| 2026-05-06 04:45 | 45.49657 | -70.12937 | 34831 ft | 503 kts | 79° |
| 2026-05-06 04:45 | 45.50600 | -70.03052 | 34831 ft | 502 kts | 79° |
| 2026-05-06 04:46 | 45.51560 | -69.93135 | 34833 ft | 501 kts | 79° |
| 2026-05-06 04:46 | 45.52502 | -69.83291 | 34828 ft | 501 kts | 79° |
| 2026-05-06 04:47 | 45.53422 | -69.73470 | 34832 ft | 501 kts | 79° |
| 2026-05-06 04:47 | 45.54327 | -69.63608 | 34826 ft | 501 kts | 79° |
| 2026-05-06 04:48 | 45.55224 | -69.53735 | 34835 ft | 500 kts | 79° |
| 2026-05-06 04:48 | 45.56116 | -69.43900 | 34831 ft | 500 kts | 79° |
| 2026-05-06 04:49 | 45.57010 | -69.34063 | 34841 ft | 499 kts | 79° |
| 2026-05-06 04:49 | 45.57890 | -69.24203 | 34836 ft | 499 kts | 79° |
| 2026-05-06 04:50 | 45.58745 | -69.14443 | 34845 ft | 498 kts | 79° |
| 2026-05-06 04:50 | 45.59608 | -69.04552 | 34850 ft | 497 kts | 79° |
| 2026-05-06 04:51 | 45.60459 | -68.94731 | 34859 ft | 497 kts | 79° |
| 2026-05-06 04:51 | 45.61297 | -68.84946 | 34857 ft | 496 kts | 79° |
| 2026-05-06 04:52 | 45.61989 | -68.76750 | 34864 ft | 495 kts | 79° |
| 2026-05-06 04:52 | 45.62809 | -68.66988 | 34856 ft | 494 kts | 79° |
| 2026-05-06 04:53 | 45.63618 | -68.57237 | 34862 ft | 494 kts | 79° |
| 2026-05-06 04:53 | 45.64422 | -68.47492 | 34851 ft | 493 kts | 79° |
| 2026-05-06 04:54 | 45.65224 | -68.37760 | 34852 ft | 493 kts | 79° |
| 2026-05-06 04:54 | 45.66002 | -68.28024 | 34841 ft | 492 kts | 79° |
| 2026-05-06 04:55 | 45.66772 | -68.18261 | 34837 ft | 492 kts | 79° |
| 2026-05-06 04:55 | 45.67539 | -68.08540 | 34830 ft | 492 kts | 79° |
| 2026-05-06 04:56 | 45.68299 | -67.98809 | 34831 ft | 492 kts | 79° |
| 2026-05-06 04:56 | 45.69050 | -67.89092 | 34829 ft | 491 kts | 79° |
| 2026-05-06 04:57 | 45.69911 | -67.79409 | 34836 ft | 487 kts | 72° |
| 2026-05-06 04:57 | 45.71645 | -67.70099 | 34837 ft | 484 kts | 69° |
| 2026-05-06 04:58 | 45.73386 | -67.60799 | 34845 ft | 484 kts | 70° |
| 2026-05-06 04:58 | 45.75112 | -67.51469 | 34848 ft | 483 kts | 70° |
| 2026-05-06 04:59 | 45.76839 | -67.42134 | 34864 ft | 483 kts | 70° |
| 2026-05-06 04:59 | 45.78562 | -67.32815 | 34860 ft | 483 kts | 70° |
| 2026-05-06 04:59 | 45.79418 | -67.28159 | 34747 ft | 483 kts | 70° |
| 2026-05-06 05:00 | 45.80267 | -67.23506 | 34524 ft | 482 kts | 69° |
| 2026-05-06 05:00 | 45.81111 | -67.18855 | 34287 ft | 482 kts | 69° |
| 2026-05-06 05:00 | 45.81964 | -67.14147 | 34053 ft | 481 kts | 69° |
| 2026-05-06 05:00 | 45.82807 | -67.09503 | 33815 ft | 480 kts | 69° |
| 2026-05-06 05:01 | 45.83640 | -67.04911 | 33553 ft | 481 kts | 69° |
| 2026-05-06 05:01 | 45.84483 | -67.00263 | 33280 ft | 481 kts | 69° |
| 2026-05-06 05:01 | 45.85331 | -66.95569 | 33013 ft | 482 kts | 69° |
| 2026-05-06 05:01 | 45.86174 | -66.90901 | 32745 ft | 483 kts | 69° |
| 2026-05-06 05:02 | 45.87013 | -66.86225 | 32479 ft | 484 kts | 69° |
| 2026-05-06 05:02 | 45.87852 | -66.81535 | 32211 ft | 486 kts | 69° |
| 2026-05-06 05:02 | 45.88689 | -66.76840 | 31954 ft | 486 kts | 69° |
| 2026-05-06 05:02 | 45.89527 | -66.72133 | 31698 ft | 488 kts | 69° |
| 2026-05-06 05:03 | 45.90366 | -66.67407 | 31427 ft | 489 kts | 69° |
| 2026-05-06 05:03 | 45.91214 | -66.62605 | 31173 ft | 490 kts | 69° |
| 2026-05-06 05:03 | 45.92048 | -66.57854 | 30922 ft | 492 kts | 69° |
| 2026-05-06 05:03 | 45.92882 | -66.53093 | 30480 ft | 492 kts | 69° |
| 2026-05-06 05:04 | 45.93725 | -66.48288 | 29077 ft | 501 kts | 70° |
| 2026-05-06 05:04 | 45.94593 | -66.43355 | 27635 ft | 510 kts | 70° |
| 2026-05-06 05:04 | 45.95507 | -66.38447 | 26951 ft | 502 kts | 69° |
| 2026-05-06 05:04 | 45.96460 | -66.33670 | 26281 ft | 493 kts | 68° |
| 2026-05-06 05:05 | 45.97451 | -66.28915 | 25559 ft | 487 kts | 67° |
| 2026-05-06 05:05 | 45.98422 | -66.24328 | 24894 ft | 482 kts | 67° |
| 2026-05-06 05:05 | 45.99392 | -66.19731 | 24221 ft | 478 kts | 68° |
| 2026-05-06 05:05 | 46.00339 | -66.15169 | 23556 ft | 474 kts | 68° |
| 2026-05-06 05:06 | 46.01266 | -66.10633 | 22842 ft | 470 kts | 68° |
| 2026-05-06 05:06 | 46.02182 | -66.06085 | 22231 ft | 464 kts | 68° |
| 2026-05-06 05:06 | 46.03066 | -66.01646 | 21628 ft | 459 kts | 69° |
| 2026-05-06 05:06 | 46.03938 | -65.97244 | 21064 ft | 455 kts | 69° |
| 2026-05-06 05:07 | 46.04805 | -65.92882 | 20503 ft | 451 kts | 69° |
| 2026-05-06 05:07 | 46.05663 | -65.88562 | 19975 ft | 448 kts | 69° |
| 2026-05-06 05:07 | 46.06519 | -65.84249 | 19459 ft | 445 kts | 69° |
| 2026-05-06 05:07 | 46.07362 | -65.79985 | 18961 ft | 443 kts | 69° |
| 2026-05-06 05:08 | 46.08202 | -65.75725 | 18463 ft | 441 kts | 69° |
| 2026-05-06 05:08 | 46.09032 | -65.71507 | 17954 ft | 438 kts | 69° |
| 2026-05-06 05:08 | 46.09863 | -65.67293 | 17458 ft | 434 kts | 69° |
| 2026-05-06 05:08 | 46.10685 | -65.63128 | 16973 ft | 430 kts | 69° |
| 2026-05-06 05:09 | 46.11497 | -65.59005 | 16485 ft | 426 kts | 70° |
| 2026-05-06 05:09 | 46.12304 | -65.54884 | 15978 ft | 423 kts | 70° |
| 2026-05-06 05:09 | 46.13098 | -65.50826 | 15475 ft | 420 kts | 70° |
| 2026-05-06 05:09 | 46.13888 | -65.46791 | 14966 ft | 417 kts | 70° |
| 2026-05-06 05:10 | 46.14670 | -65.42780 | 14440 ft | 414 kts | 70° |
| 2026-05-06 05:10 | 46.15442 | -65.38791 | 13919 ft | 412 kts | 71° |
| 2026-05-06 05:10 | 46.16211 | -65.34803 | 13338 ft | 410 kts | 71° |
| 2026-05-06 05:10 | 46.16979 | -65.30805 | 12873 ft | 404 kts | 71° |
| 2026-05-06 05:11 | 46.17718 | -65.26970 | 12355 ft | 400 kts | 71° |
| 2026-05-06 05:11 | 46.18466 | -65.23101 | 11814 ft | 396 kts | 71° |
| 2026-05-06 05:11 | 46.19202 | -65.19286 | 11256 ft | 393 kts | 71° |
| 2026-05-06 05:11 | 46.19945 | -65.15436 | 10783 ft | 388 kts | 72° |
| 2026-05-06 05:12 | 46.20648 | -65.11765 | 10650 ft | 373 kts | 72° |
| 2026-05-06 05:12 | 46.21321 | -65.08223 | 10521 ft | 359 kts | 72° |
| 2026-05-06 05:12 | 46.21977 | -65.04784 | 10399 ft | 346 kts | 72° |
| 2026-05-06 05:12 | 46.22608 | -65.01488 | 10245 ft | 335 kts | 72° |
| 2026-05-06 05:13 | 46.23221 | -64.98263 | 10022 ft | 329 kts | 72° |
| 2026-05-06 05:13 | 46.23817 | -64.95122 | 9949 ft | 329 kts | 72° |
| 2026-05-06 05:13 | 46.24434 | -64.91862 | 9392 ft | 334 kts | 72° |
| 2026-05-06 05:13 | 46.25040 | -64.88667 | 9087 ft | 327 kts | 72° |
| 2026-05-06 05:14 | 46.25640 | -64.85492 | 8244 ft | 331 kts | 77° |
| 2026-05-06 05:14 | 46.26242 | -64.82284 | 7793 ft | 331 kts | 77° |
| 2026-05-06 05:14 | 46.26840 | -64.79092 | 7408 ft | 328 kts | 77° |
| 2026-05-06 05:14 | 46.27436 | -64.75923 | 6977 ft | 326 kts | 77° |
| 2026-05-06 05:15 | 46.28030 | -64.72764 | 6560 ft | 324 kts | 77° |
| 2026-05-06 05:15 | 46.28616 | -64.69630 | 6101 ft | 323 kts | 77° |
| 2026-05-06 05:15 | 46.29211 | -64.66442 | 5415 ft | 330 kts | 76° |
| 2026-05-06 05:15 | 46.29606 | -64.64314 | 5272 ft | 322 kts | 76° |
| 2026-05-06 05:16 | 46.29969 | -64.61201 | 5123 ft | 304 kts | 95° |
| 2026-05-06 05:16 | 46.29534 | -64.58343 | 4913 ft | 283 kts | 121° |
| 2026-05-06 05:16 | 46.28429 | -64.56046 | 4464 ft | 270 kts | 142° |
| 2026-05-06 05:16 | 46.27150 | -64.54067 | 4067 ft | 269 kts | 141° |
| 2026-05-06 05:17 | 46.25812 | -64.52244 | 3673 ft | 258 kts | 158° |
| 2026-05-06 05:17 | 46.24193 | -64.51698 | 3329 ft | 229 kts | 196° |
| 2026-05-06 05:17 | 46.22837 | -64.52596 | 3051 ft | 210 kts | 223° |
| 2026-05-06 05:17 | 46.21770 | -64.53981 | 2770 ft | 203 kts | 230° |
| 2026-05-06 05:18 | 46.20793 | -64.55433 | 2489 ft | 200 kts | 231° |
| 2026-05-06 05:18 | 46.19836 | -64.56857 | 2329 ft | 190 kts | 229° |
| 2026-05-06 05:18 | 46.18948 | -64.58132 | 2174 ft | 175 kts | 228° |
| 2026-05-06 05:18 | 46.18100 | -64.59324 | 1866 ft | 165 kts | 230° |
| 2026-05-06 05:19 | 46.17285 | -64.60446 | 1560 ft | 157 kts | 229° |
| 2026-05-06 05:19 | 46.16515 | -64.61491 | 1325 ft | 140 kts | 228° |
| 2026-05-06 05:19 | 46.15840 | -64.62399 | 1094 ft | 129 kts | 227° |
| 2026-05-06 05:19 | 46.15203 | -64.63282 | 929 ft | 124 kts | 228° |
| 2026-05-06 05:20 | 46.14602 | -64.64150 | 925 ft | 123 kts | 226° |
| 2026-05-06 05:20 | 46.13956 | -64.64960 | 727 ft | 124 kts | 220° |
| 2026-05-06 05:20 | 46.13339 | -64.65809 | 491 ft | 119 kts | 222° |
| 2026-05-06 05:20 | 46.12728 | -64.66630 | 261 ft | 120 kts | 220° |
| 2026-05-06 05:21 | 46.12166 | -64.67383 | 218 ft | 96 kts | 222° |
| 2026-05-06 05:21 | 46.11792 | -64.67858 | 219 ft | 50 kts | 223° |
| 2026-05-06 05:21 | 46.11562 | -64.68160 | 224 ft | 40 kts | 221° |
| 2026-05-06 05:21 | 46.11367 | -64.68408 | 228 ft | 32 kts | 221° |
| 2026-05-06 05:22 | 46.11375 | -64.68629 | 225 ft | 27 kts | 308° |
| 2026-05-06 05:22 | 46.11517 | -64.68655 | 224 ft | 16 kts | 50° |
| 2026-05-06 05:22 | 46.11522 | -64.68646 | 224 ft | 0 kts | 49° |
| 2026-05-06 05:23 | 46.11523 | -64.68645 | 224 ft | 1 kts | 47° |
| 2026-05-06 05:23 | 46.11527 | -64.68647 | 224 ft | 0 kts | 3° |
| 2026-05-06 05:23 | 46.11530 | -64.68648 | 224 ft | 0 kts | 355° |
| 2026-05-06 05:24 | 46.11531 | -64.68648 | 224 ft | 1 kts | 354° |
| 2026-05-06 05:24 | 46.11540 | -64.68654 | 224 ft | 2 kts | 335° |
| 2026-05-06 05:24 | 46.11554 | -64.68672 | 224 ft | 3 kts | 311° |
| 2026-05-06 05:24 | 46.11570 | -64.68700 | 226 ft | 4 kts | 310° |
| 2026-05-06 05:25 | 46.11589 | -64.68728 | 224 ft | 0 kts | 317° |